Time;durP1;ratioP1;P1;durP2;ratioP2;P2;SDS_P1;SDS_P2;PMS_P1;PMS_P2;Temp;Humidity;BMP_temperature;BMP_pressure;BME280_temperature;BME280_humidity;BME280_pressure;Samples;Min_cycle;Max_cycle;Signal;HPM_P1;HPM_P2
2023/04/08 00:00:33;;;;;;;37.55;21.98;;;;;;;7.26;100.00;102225.84;5093775;28;20499;-73
2023/04/08 00:02:58;;;;;;;34.53;21.08;;;;;;;7.37;100.00;102241.81;5093715;28;20032;-73
2023/04/08 00:05:23;;;;;;;33.78;20.40;;;;;;;7.39;100.00;102241.78;5093654;28;20123;-75
2023/04/08 00:07:49;;;;;;;33.60;21.10;;;;;;;7.32;100.00;102232.56;5093634;28;20051;-73
2023/04/08 00:10:14;;;;;;;37.70;21.23;;;;;;;7.22;100.00;102213.13;5093517;28;20062;-73
2023/04/08 00:12:39;;;;;;;35.20;20.10;;;;;;;7.41;100.00;102234.88;5092400;28;20020;-74
2023/04/08 00:15:05;;;;;;;36.13;21.92;;;;;;;7.42;100.00;102236.56;5093111;28;20473;-73
2023/04/08 00:17:30;;;;;;;32.92;21.95;;;;;;;7.33;100.00;102216.25;5093655;28;20034;-74
2023/04/08 00:19:56;;;;;;;34.33;21.27;;;;;;;7.42;100.00;102231.41;5093408;28;20028;-73
2023/04/08 00:22:24;;;;;;;36.75;20.85;;;;;;;7.30;100.00;102209.47;5093488;28;20054;-74
2023/04/08 00:24:50;;;;;;;35.45;21.20;;;;;;;7.51;100.00;102238.03;5093268;28;20461;-73
2023/04/08 00:27:15;;;;;;;36.85;21.83;;;;;;;7.53;100.00;102242.25;5093262;28;20028;-74
2023/04/08 00:29:40;;;;;;;39.58;22.73;;;;;;;7.52;100.00;102244.84;5093133;28;20410;-73
2023/04/08 00:32:06;;;;;;;44.92;23.75;;;;;;;7.43;100.00;102228.81;5083683;28;20029;-74
2023/04/08 00:34:32;;;;;;;37.72;22.90;;;;;;;7.50;100.00;102233.78;5073020;28;20020;-71
2023/04/08 00:36:58;;;;;;;38.22;22.63;;;;;;;7.57;100.00;102246.44;5072921;28;20016;-75
2023/04/08 00:39:24;;;;;;;39.85;23.13;;;;;;;7.59;100.00;102244.66;5072949;28;20183;-73
2023/04/08 00:41:49;;;;;;;42.10;24.45;;;;;;;7.53;100.00;102242.25;5072648;28;20028;-74
2023/04/08 00:44:15;;;;;;;40.35;24.50;;;;;;;7.34;100.00;102207.66;5072650;28;20021;-74
2023/04/08 00:46:40;;;;;;;45.92;25.35;;;;;;;7.59;100.00;102246.38;5085972;28;20410;-73
2023/04/08 00:49:06;;;;;;;40.38;25.83;;;;;;;7.54;100.00;102230.22;5072877;28;20016;-73
2023/04/08 00:51:32;;;;;;;42.55;24.85;;;;;;;7.59;100.00;102252.38;5072709;28;20021;-74
2023/04/08 00:53:59;;;;;;;48.60;24.45;;;;;;;7.38;100.00;102219.53;5064460;28;20405;-73
2023/04/08 00:56:25;;;;;;;45.08;25.45;;;;;;;7.55;100.00;102249.91;5072170;28;20120;-73
2023/04/08 00:58:54;;;;;;;42.20;26.25;;;;;;;7.39;100.00;102222.06;5072511;28;20029;-72
2023/04/08 01:01:50;;;;;;;46.22;27.05;;;;;;;7.59;100.00;102252.38;5072577;28;20035;-74
2023/04/08 01:04:37;;;;;;;48.00;26.15;;;;;;;7.59;100.00;102256.66;5004938;28;20046;-73
2023/04/08 01:07:14;;;;;;;47.03;25.42;;;;;;;7.58;100.00;102249.84;5010813;28;20030;-73
2023/04/08 01:09:45;;;;;;;42.08;24.95;;;;;;;7.00;100.00;102161.50;5010502;28;20038;-73
2023/04/08 01:12:12;;;;;;;43.30;23.53;;;;;;;7.56;100.00;102260.13;5010468;28;20061;-71
2023/04/08 01:14:42;;;;;;;42.33;26.02;;;;;;;7.47;100.00;102238.13;5010684;28;20408;-73
2023/04/08 01:17:09;;;;;;;47.00;26.25;;;;;;;7.55;100.00;102257.63;5010823;28;20503;-73
2023/04/08 01:19:38;;;;;;;43.72;26.13;;;;;;;7.55;100.00;102250.75;5010738;28;20061;-73
2023/04/08 01:22:22;;;;;;;41.10;25.35;;;;;;;7.48;100.00;102239.81;5010347;28;20038;-75
2023/04/08 01:24:52;;;;;;;42.22;26.55;;;;;;;7.49;100.00;102243.22;5012431;28;20057;-73
2023/04/08 01:27:18;;;;;;;46.13;25.58;;;;;;;7.55;100.00;102253.31;5014448;28;20065;-72
2023/04/08 01:29:44;;;;;;;43.47;25.48;;;;;;;7.33;100.00;102229.94;5014515;28;20108;-73
2023/04/08 01:32:11;;;;;;;50.30;27.65;;;;;;;7.41;100.00;102227.16;4998168;28;20038;-73
2023/04/08 01:34:38;;;;;;;46.83;27.85;;;;;;;7.54;100.00;102256.78;5014604;28;20438;-73
2023/04/08 01:37:05;;;;;;;44.42;26.70;;;;;;;7.56;100.00;102267.84;5014445;28;20030;-74
2023/04/08 01:39:31;;;;;;;43.75;26.00;;;;;;;7.33;100.00;102229.09;5014372;28;20479;-75
2023/04/08 01:41:58;;;;;;;44.13;27.27;;;;;;;7.55;100.00;102266.16;5065097;28;20059;-75
2023/04/08 01:44:25;;;;;;;51.38;28.10;;;;;;;7.55;100.00;102271.31;5076076;28;20035;-75
2023/04/08 01:46:52;;;;;;;55.20;27.15;;;;;;;7.58;100.00;102268.69;5075991;28;20051;-75
2023/04/08 01:49:18;;;;;;;49.85;26.02;;;;;;;7.46;100.00;102251.00;5075916;28;20016;-72
2023/04/08 01:51:46;;;;;;;55.08;27.63;;;;;;;7.32;100.00;102223.13;5075820;28;20394;-75
2023/04/08 01:54:12;;;;;;;52.53;27.40;;;;;;;7.59;100.00;102272.09;5075743;28;20070;-74
2023/04/08 01:56:40;;;;;;;49.20;28.00;;;;;;;7.58;100.00;102270.41;5075545;28;20071;-75
2023/04/08 01:59:10;;;;;;;58.42;29.02;;;;;;;7.48;100.00;102251.81;5075823;28;20027;-75
2023/04/08 02:01:35;;;;;;;50.55;26.58;;;;;;;7.42;100.00;102250.25;5075990;28;20060;-75
2023/04/08 02:04:02;;;;;;;45.58;27.45;;;;;;;7.57;100.00;102269.56;5075759;28;20020;-75
2023/04/08 02:06:30;;;;;;;53.13;28.73;;;;;;;7.53;100.00;102269.69;5075316;28;20064;-74
2023/04/08 02:08:58;;;;;;;52.13;28.27;;;;;;;7.57;100.00;102269.56;5075793;28;20426;-74
2023/04/08 02:11:24;;;;;;;51.20;29.58;;;;;;;7.56;100.00;102265.28;5075398;28;20462;-75
2023/04/08 02:13:50;;;;;;;54.28;29.40;;;;;;;7.46;100.00;102251.00;5075529;28;20485;-75
2023/04/08 02:16:33;;;;;;;52.50;28.00;;;;;;;7.41;100.00;102250.28;5075340;28;20032;-74
2023/04/08 02:19:08;;;;;;;53.08;29.70;;;;;;;7.57;100.00;102279.84;5075353;28;20350;-74
2023/04/08 02:21:46;;;;;;;57.53;29.67;;;;;;;7.53;100.00;102273.09;5075260;28;20028;-74
2023/04/08 02:24:13;;;;;;;58.15;29.38;;;;;;;7.50;100.00;102268.03;5075085;28;20028;-73
2023/04/08 02:26:41;;;;;;;55.88;27.45;;;;;;;7.39;100.00;102255.47;5075209;28;20500;-74
2023/04/08 02:29:11;;;;;;;55.30;29.13;;;;;;;7.58;100.00;102278.13;5075385;28;20457;-73
2023/04/08 02:31:45;;;;;;;59.35;30.42;;;;;;;7.54;100.00;102273.94;5075253;28;20085;-74
2023/04/08 02:34:12;;;;;;;54.45;31.05;;;;;;;7.55;100.00;102280.75;5075013;28;20465;-76
2023/04/08 02:36:39;;;;;;;53.22;29.30;;;;;;;7.39;100.00;102249.50;5074050;28;20465;-74
2023/04/08 02:39:05;;;;;;;51.67;30.30;;;;;;;7.50;100.00;102277.47;5075276;28;20221;-73
2023/04/08 02:41:31;;;;;;;52.08;28.20;;;;;;;7.40;100.00;102267.44;5075108;28;20111;-71
2023/04/08 02:43:56;;;;;;;58.85;29.52;;;;;;;7.41;100.00;102283.69;5074782;28;20047;-75
2023/04/08 02:46:22;;;;;;;54.50;28.42;;;;;;;7.38;100.00;102284.63;5074892;28;20036;-71
2023/04/08 02:48:47;;;;;;;51.15;27.85;;;;;;;7.31;100.00;102279.69;5074928;28;20373;-73
2023/04/08 02:51:13;;;;;;;48.75;27.25;;;;;;;7.25;100.00;102283.25;5075169;28;20071;-73
2023/04/08 02:53:38;;;;;;;48.50;29.90;;;;;;;7.22;100.00;102290.19;5074864;28;20114;-73
2023/04/08 02:56:04;;;;;;;44.72;26.20;;;;;;;6.93;100.00;102250.69;5074675;28;20106;-73
2023/04/08 02:58:30;;;;;;;50.58;25.73;;;;;;;7.11;100.00;102286.19;5074526;28;20024;-75
2023/04/08 03:00:55;;;;;;;50.42;28.27;;;;;;;6.96;100.00;102272.88;5089666;28;20524;-73
2023/04/08 03:03:26;;;;;;;50.00;28.60;;;;;;;6.93;100.00;102286.63;5084563;28;20393;-73
2023/04/08 03:05:52;;;;;;;47.72;26.67;;;;;;;6.93;100.00;102299.47;5074950;28;20181;-74
2023/04/08 03:08:18;;;;;;;52.58;27.98;;;;;;;6.78;100.00;102279.28;5074533;28;20367;-73
2023/04/08 03:10:43;;;;;;;50.55;27.38;;;;;;;6.77;100.00;102273.31;5074448;28;20028;-74
2023/04/08 03:13:08;;;;;;;52.25;28.67;;;;;;;6.77;100.00;102278.44;5074409;28;20032;-73
2023/04/08 03:15:33;;;;;;;51.90;27.52;;;;;;;6.81;100.00;102292.06;5074364;28;20047;-73
2023/04/08 03:17:59;;;;;;;49.83;28.23;;;;;;;6.76;100.00;102296.47;5074222;28;20024;-74
2023/04/08 03:20:24;;;;;;;52.40;27.10;;;;;;;6.66;100.00;102292.41;5074288;28;20033;-72
2023/04/08 03:22:50;;;;;;;43.15;25.48;;;;;;;6.57;100.00;102294.31;5074334;28;20025;-75
2023/04/08 03:25:15;;;;;;;40.78;25.35;;;;;;;6.38;100.00;102271.66;5074267;28;20044;-73
2023/04/08 03:27:41;;;;;;;47.60;24.30;;;;;;;6.41;100.00;102287.84;5074302;28;20020;-71
2023/04/08 03:30:06;;;;;;;44.83;24.33;;;;;;;6.23;100.00;102275.44;5074235;28;20024;-74
2023/04/08 03:32:32;;;;;;;45.03;25.58;;;;;;;6.24;100.00;102285.66;5073911;28;20025;-73
2023/04/08 03:34:57;;;;;;;45.63;26.27;;;;;;;6.18;100.00;102283.19;5072826;28;20529;-73
2023/04/08 03:37:23;;;;;;;54.38;26.63;;;;;;;6.03;100.00;102263.88;5074060;28;20024;-73
2023/04/08 03:39:48;;;;;;;48.92;26.58;;;;;;;6.20;100.00;102291.75;5074166;28;20025;-73
2023/04/08 03:42:13;;;;;;;42.03;24.77;;;;;;;6.04;100.00;102255.31;5073818;28;20433;-75
2023/04/08 03:44:39;;;;;;;45.33;25.77;;;;;;;6.14;100.00;102288.44;5073635;28;20500;-72
2023/04/08 03:47:04;;;;;;;49.22;26.88;;;;;;;6.18;100.00;102290.06;5073324;28;20094;-74
2023/04/08 03:49:29;;;;;;;50.50;26.13;;;;;;;6.12;100.00;102285.91;5074037;28;20029;-75
2023/04/08 03:51:55;;;;;;;41.60;25.67;;;;;;;6.18;100.00;102297.75;5073656;28;20112;-74
2023/04/08 03:54:20;;;;;;;58.22;26.92;;;;;;;6.14;100.00;102275.63;5073506;28;20024;-71
2023/04/08 03:56:45;;;;;;;53.83;26.63;;;;;;;6.30;100.00;102310.34;5070479;28;20098;-72
2023/04/08 03:59:11;;;;;;;87.68;28.10;;;;;;;6.23;100.00;102291.66;5073622;28;20115;-72
2023/04/08 04:01:36;;;;;;;96.03;27.13;;;;;;;6.29;100.00;102313.75;5069502;28;20056;-72
2023/04/08 04:04:01;;;;;;;40.42;24.77;;;;;;;6.32;100.00;102311.16;5073519;28;20032;-74
2023/04/08 04:06:27;;;;;;;38.75;23.52;;;;;;;6.33;100.00;102305.97;5068134;28;20444;-72
2023/04/08 04:08:55;;;;;;;43.80;24.08;;;;;;;6.25;100.00;102281.38;5073433;28;20073;-73
2023/04/08 04:11:21;;;;;;;44.65;24.52;;;;;;;6.44;100.00;102310.03;5073331;28;20035;-72
2023/04/08 04:13:47;;;;;;;46.50;26.92;;;;;;;6.34;100.00;102288.84;5087153;28;20029;-72
2023/04/08 04:16:12;;;;;;;54.08;26.48;;;;;;;6.35;100.00;102282.00;5082620;28;20421;-72
2023/04/08 04:18:37;;;;;;;45.42;27.45;;;;;;;6.53;100.00;102310.66;5073181;28;20466;-75
2023/04/08 04:21:06;;;;;;;41.15;23.90;;;;;;;6.56;100.00;102323.44;5073041;28;20028;-75
2023/04/08 04:23:31;;;;;;;42.50;23.95;;;;;;;6.44;100.00;102300.59;5072956;28;20016;-73
2023/04/08 04:25:57;;;;;;;41.58;23.23;;;;;;;6.56;100.00;102317.44;5072052;28;20035;-75
2023/04/08 04:28:22;;;;;;;44.42;23.67;;;;;;;6.62;100.00;102327.59;5072765;28;20103;-73
2023/04/08 04:30:47;;;;;;;46.97;26.45;;;;;;;6.61;100.00;102331.03;5070228;28;20037;-73
2023/04/08 04:33:12;;;;;;;66.55;28.42;;;;;;;6.44;100.00;102315.16;5072837;28;20063;-72
2023/04/08 04:35:39;;;;;;;50.47;27.40;;;;;;;6.47;100.00;102326.19;5072958;28;20128;-74
2023/04/08 04:38:09;;;;;;;64.43;29.27;;;;;;;6.56;100.00;102340.53;5073035;28;20021;-73
2023/04/08 04:40:35;;;;;;;79.35;30.95;;;;;;;6.33;100.00;102318.81;5072662;28;20078;-75
2023/04/08 04:43:00;;;;;;;63.72;29.33;;;;;;;6.43;100.00;102329.72;5072781;28;20028;-74
2023/04/08 04:45:26;;;;;;;74.72;29.23;;;;;;;6.45;100.00;102343.34;5072642;28;20029;-74
2023/04/08 04:47:54;;;;;;;71.68;28.80;;;;;;;6.48;100.00;102345.00;5072749;28;20099;-75
2023/04/08 04:50:20;;;;;;;76.18;28.15;;;;;;;6.47;100.00;102351.84;5072853;28;20428;-75
2023/04/08 04:52:45;;;;;;;60.15;28.35;;;;;;;6.39;100.00;102330.66;5072661;28;20092;-75
2023/04/08 04:55:11;;;;;;;70.00;28.88;;;;;;;6.51;100.00;102353.50;5072698;28;20045;-74
2023/04/08 04:57:36;;;;;;;63.55;28.90;;;;;;;6.53;100.00;102356.03;5085151;28;20032;-73
2023/04/08 05:00:02;;;;;;;62.08;27.60;;;;;;;6.43;100.00;102346.84;5071818;28;20028;-75
2023/04/08 05:02:27;;;;;;;64.38;29.10;;;;;;;6.46;100.00;102347.59;5084042;28;20041;-73
2023/04/08 05:04:54;;;;;;;78.68;27.98;;;;;;;6.53;100.00;102368.84;5087952;28;20029;-75
2023/04/08 05:07:20;;;;;;;71.60;28.08;;;;;;;6.24;100.00;102325.84;5072643;28;20017;-75
2023/04/08 05:09:46;;;;;;;72.65;27.42;;;;;;;6.54;100.00;102375.69;5072474;28;20066;-74
2023/04/08 05:12:11;;;;;;;57.58;25.88;;;;;;;6.56;100.00;102369.63;5081588;28;20036;-73
2023/04/08 05:14:37;;;;;;;56.90;26.92;;;;;;;6.49;100.00;102356.94;5072375;28;20031;-72
2023/04/08 05:17:02;;;;;;;55.20;25.90;;;;;;;6.64;100.00;102378.88;5072456;28;20388;-73
2023/04/08 05:19:27;;;;;;;57.90;25.65;;;;;;;6.63;100.00;102379.78;5072311;28;20032;-74
2023/04/08 05:21:53;;;;;;;55.58;24.25;;;;;;;6.13;100.00;102297.03;5072298;28;20021;-73
2023/04/08 05:24:18;;;;;;;45.45;24.55;;;;;;;6.62;100.00;102368.66;5072457;28;20378;-74
2023/04/08 05:26:45;;;;;;;43.30;25.73;;;;;;;6.71;100.00;102381.28;5072718;28;20048;-75
2023/04/08 05:29:10;;;;;;;38.63;21.45;;;;;;;6.72;100.00;102379.56;5077890;28;20028;-74
2023/04/08 05:31:36;;;;;;;40.63;23.55;;;;;;;6.66;100.00;102366.84;5092622;28;20036;-74
2023/04/08 05:34:01;;;;;;;36.67;23.17;;;;;;;6.67;100.00;102371.94;5092440;28;20031;-73
2023/04/08 05:36:26;;;;;;;39.15;23.88;;;;;;;6.68;100.00;102371.06;5092259;28;20024;-73
2023/04/08 05:38:52;;;;;;;37.35;24.05;;;;;;;6.77;100.00;102390.56;5092469;28;20035;-74
2023/04/08 05:41:17;;;;;;;38.67;22.73;;;;;;;6.52;100.00;102351.78;5092260;28;20050;-73
2023/04/08 05:43:42;;;;;;;37.85;21.67;;;;;;;6.67;100.00;102378.81;5092228;28;20040;-73
2023/04/08 05:46:09;;;;;;;35.88;22.50;;;;;;;6.75;100.00;102393.16;5092205;28;20089;-74
2023/04/08 05:48:35;;;;;;;35.40;22.27;;;;;;;6.71;100.00;102378.72;5092414;28;20512;-72
2023/04/08 05:51:00;;;;;;;35.97;21.83;;;;;;;6.67;100.00;102382.22;5092106;28;20020;-73
2023/04/08 05:53:26;;;;;;;37.33;20.80;;;;;;;6.66;100.00;102380.53;5074226;28;20017;-75
2023/04/08 05:55:51;;;;;;;34.45;21.92;;;;;;;6.68;100.00;102383.06;5092137;28;20045;-76
2023/04/08 05:58:17;;;;;;;38.28;24.95;;;;;;;6.80;100.00;102403.34;5092107;28;20032;-76
2023/04/08 06:00:42;;;;;;;38.17;23.55;;;;;;;6.88;100.00;102404.00;5092369;28;20105;-73
2023/04/08 06:03:07;;;;;;;40.03;25.05;;;;;;;6.77;100.00;102385.44;5092181;28;20055;-75
2023/04/08 06:07:58;;;;;;;38.28;24.38;;;;;;;6.97;100.00;102408.09;5144673;22;20047;-75
2023/04/08 06:10:23;;;;;;;40.80;25.27;;;;;;;6.98;100.00;102410.66;5115966;27;20620;-76
2023/04/08 06:12:48;;;;;;;42.08;25.45;;;;;;;6.98;100.00;102413.22;5136844;27;20368;-76
2023/04/08 06:15:15;;;;;;;40.50;23.40;;;;;;;6.95;100.00;102400.44;5136681;27;20035;-72
2023/04/08 06:17:40;;;;;;;40.10;24.63;;;;;;;7.01;100.00;102420.84;5136875;27;20102;-73
2023/04/08 06:20:08;;;;;;;41.90;24.17;;;;;;;7.02;100.00;102421.69;5136637;27;20110;-73
2023/04/08 06:22:33;;;;;;;45.38;23.98;;;;;;;6.96;100.00;102421.81;5136484;27;20034;-73
2023/04/08 06:24:58;;;;;;;40.80;24.02;;;;;;;6.80;100.00;102398.22;5136444;27;20027;-74
2023/04/08 06:27:24;;;;;;;45.20;25.83;;;;;;;6.73;100.00;102379.53;5136655;27;20060;-73
2023/04/08 06:29:50;;;;;;;41.13;23.85;;;;;;;6.99;100.00;102425.19;5136407;27;20011;-73
2023/04/08 06:32:16;;;;;;;44.00;25.05;;;;;;;6.99;100.00;102414.06;5136567;27;20071;-74
2023/04/08 06:34:44;;;;;;;42.67;25.15;;;;;;;7.19;100.00;102437.56;5135957;27;20110;-73
2023/04/08 06:37:09;;;;;;;43.15;24.38;;;;;;;7.21;100.00;102419.56;5117527;27;20045;-74
2023/04/08 06:39:35;;;;;;;41.03;24.23;;;;;;;7.26;100.00;102431.38;5127620;27;20504;-71
2023/04/08 06:42:00;;;;;;;42.92;24.75;;;;;;;7.31;100.00;102421.03;5116769;28;20492;-71
2023/04/08 06:44:25;;;;;;;42.63;27.02;;;;;;;7.40;100.00;102446.50;5115854;28;20034;-74
2023/04/08 06:46:53;;;;;;;37.78;24.52;;;;;;;7.29;100.00;102436.47;5115658;28;20028;-71
2023/04/08 06:49:19;;;;;;;37.17;22.83;;;;;;;7.31;100.00;102444.16;5115691;28;20015;-71
2023/04/08 06:51:44;;;;;;;39.05;22.60;;;;;;;7.51;100.00;102459.09;5097296;28;20024;-72
2023/04/08 06:54:09;;;;;;;35.50;22.25;;;;;;;7.48;100.00;102460.88;5115407;28;20125;-73
2023/04/08 06:56:36;;;;;;;36.08;22.92;;;;;;;7.54;100.00;102457.28;5120265;22;20034;-74
2023/04/08 06:59:02;;;;;;;40.00;23.05;;;;;;;7.54;100.00;102459.84;5135907;27;20123;-71
2023/04/08 07:01:27;;;;;;;39.22;24.20;;;;;;;7.47;100.00;102454.03;5117239;27;20027;-73
2023/04/08 07:03:53;;;;;;;37.50;23.92;;;;;;;7.50;100.00;102454.84;5136162;27;20099;-73
2023/04/08 07:06:18;;;;;;;40.05;25.23;;;;;;;7.47;100.00;102459.19;5116970;27;20045;-75
2023/04/08 07:08:43;;;;;;;38.25;23.48;;;;;;;7.47;100.00;102463.44;5135701;27;20023;-78
2023/04/08 07:11:09;;;;;;;33.92;21.23;;;;;;;7.59;100.00;102477.75;5135825;27;20030;-76
2023/04/08 07:13:36;;;;;;;32.30;20.77;;;;;;;7.43;100.00;102459.28;5135637;27;20043;-76
2023/04/08 07:16:02;;;;;;;35.92;22.02;;;;;;;7.57;100.00;102479.50;5145473;22;20051;-78
2023/04/08 07:18:27;;;;;;;38.50;23.25;;;;;;;7.57;100.00;102490.66;5135485;27;20061;-75
2023/04/08 07:20:52;;;;;;;34.83;22.90;;;;;;;7.47;100.00;102479.75;5135595;27;20031;-76
2023/04/08 07:23:18;;;;;;;36.22;21.35;;;;;;;7.59;100.00;102493.19;5128833;27;20027;-77
2023/04/08 07:25:44;;;;;;;36.67;23.35;;;;;;;7.53;100.00;102483.03;5115173;28;20023;-75
2023/04/08 07:28:10;;;;;;;35.60;21.77;;;;;;;7.62;100.00;102495.66;5115464;28;20034;-78
2023/04/08 07:30:35;;;;;;;36.33;22.40;;;;;;;7.53;100.00;102494.16;5114720;28;20512;-74
2023/04/08 07:33:00;;;;;;;34.45;21.92;;;;;;;7.30;100.00;102475.88;5096728;28;20027;-76
2023/04/08 07:35:26;;;;;;;33.30;21.83;;;;;;;7.46;100.00;102495.16;5114633;28;20020;-77
2023/04/08 07:37:52;;;;;;;34.00;21.88;;;;;;;7.48;100.00;102503.72;5114753;28;20023;-77
2023/04/08 07:40:18;;;;;;;34.72;22.85;;;;;;;7.38;100.00;102491.97;5114775;28;20054;-77
2023/04/08 07:42:43;;;;;;;40.08;22.75;;;;;;;7.47;100.00;102507.13;5114906;28;20030;-74
2023/04/08 07:45:09;;;;;;;40.72;23.15;;;;;;;7.56;100.00;102509.50;5114047;28;20035;-76
2023/04/08 07:47:35;;;;;;;34.75;21.73;;;;;;;7.46;100.00;102492.59;5114337;28;20028;-75
2023/04/08 07:50:01;;;;;;;37.20;22.00;;;;;;;7.65;100.00;102519.56;5114641;28;20095;-78
2023/04/08 07:52:26;;;;;;;37.30;23.92;;;;;;;7.66;100.00;102500.69;5114481;28;20109;-75
2023/04/08 07:54:52;;;;;;;38.58;23.52;;;;;;;7.90;100.00;102516.41;5114375;28;20463;-74
2023/04/08 07:57:17;;;;;;;34.15;20.35;;;;;;;7.91;100.00;102518.94;5114417;28;20034;-73
2023/04/08 07:59:42;;;;;;;36.92;22.45;;;;;;;7.87;100.00;102499.34;5114324;28;20031;-78
2023/04/08 08:02:08;;;;;;;39.30;21.92;;;;;;;7.95;100.00;102523.13;5114205;28;20384;-74
2023/04/08 08:04:33;;;;;;;36.97;22.70;;;;;;;7.91;100.00;102525.81;5114259;28;20038;-74
2023/04/08 08:06:58;;;;;;;37.28;23.88;;;;;;;7.86;100.00;102531.06;5114144;28;20396;-73
2023/04/08 08:09:36;;;;;;;36.78;23.42;;;;;;;6.99;100.00;102371.25;5099177;23;20190;-74
2023/04/08 08:12:01;;;;;;;30.13;22.02;;;;;;;7.78;100.00;102512.44;5083261;23;20401;-72
2023/04/08 08:14:27;;;;;;;28.48;19.90;;;;;;;7.88;100.00;102531.06;5073473;28;20036;-71
2023/04/08 08:16:53;;;;;;;33.20;20.52;;;;;;;7.86;100.00;102533.63;5071291;28;20044;-72
2023/04/08 08:19:19;;;;;;;33.22;22.10;;;;;;;7.90;100.00;102542.13;5073104;28;20038;-72
2023/04/08 08:21:45;;;;;;;32.30;22.35;;;;;;;7.95;100.00;102543.69;5073098;28;20032;-73
2023/04/08 08:24:10;;;;;;;32.35;20.67;;;;;;;7.93;100.00;102542.06;5073012;28;20390;-75
2023/04/08 08:26:36;;;;;;;31.27;20.23;;;;;;;7.98;100.00;102540.22;5072923;28;20028;-77
2023/04/08 08:29:02;;;;;;;30.20;20.90;;;;;;;7.86;100.00;102522.50;5072996;28;20078;-78
2023/04/08 08:31:27;;;;;;;30.80;21.80;;;;;;;8.13;100.00;102546.72;5073008;28;20032;-77
2023/04/08 08:33:53;;;;;;;29.95;20.50;;;;;;;8.20;100.00;102528.50;5072124;28;20020;-77
2023/04/08 08:36:18;;;;;;;28.40;20.30;;;;;;;8.25;100.00;102541.25;5073141;28;20558;-73
2023/04/08 08:38:44;;;;;;;27.63;20.35;;;;;;;8.36;100.00;102538.41;5071218;28;20489;-75
2023/04/08 08:41:09;;;;;;;27.08;20.08;;;;;;;8.32;100.00;102523.03;5072708;28;20025;-76
2023/04/08 08:43:36;;;;;;;27.05;20.75;;;;;;;8.51;100.00;102545.75;5090238;28;20020;-75
2023/04/08 08:46:02;;;;;;;25.05;18.65;;;;;;;8.55;100.00;102550.78;5092129;28;20468;-71
2023/04/08 08:48:28;;;;;;;25.42;18.75;;;;;;;8.70;100.00;102548.66;5093111;28;20054;-73
2023/04/08 08:50:53;;;;;;;23.60;18.55;;;;;;;8.88;100.00;102566.19;5092904;28;20060;-77
2023/04/08 08:53:19;;;;;;;24.58;18.85;;;;;;;8.98;100.00;102570.19;5091763;28;20030;-76
2023/04/08 08:55:44;;;;;;;23.80;18.30;;;;;;;9.01;100.00;102570.09;5092800;28;20362;-75
2023/04/08 08:58:10;;;;;;;22.85;17.67;;;;;;;8.87;100.00;102547.31;5092779;28;20059;-76
2023/04/08 09:00:41;;;;;;;24.05;19.02;;;;;;;8.95;100.00;102569.41;5091862;28;20024;-74
2023/04/08 09:03:16;;;;;;;24.40;18.30;;;;;;;8.85;100.00;102574.03;5072567;28;20074;-75
2023/04/08 09:05:51;;;;;;;24.83;18.27;;;;;;;8.85;100.00;102576.59;5072612;28;20108;-75
2023/04/08 09:08:34;;;;;;;24.88;19.15;;;;;;;8.97;100.00;102576.25;5072512;28;20043;-73
2023/04/08 09:11:11;;;;;;;27.38;18.15;;;;;;;8.99;100.00;102581.34;5072350;28;20503;-73
2023/04/08 09:13:36;;;;;;;24.23;17.85;;;;;;;8.85;100.00;102579.16;5072450;28;20028;-73
2023/04/08 09:16:08;;;;;;;24.08;18.63;;;;;;;8.90;100.00;102588.44;5071066;28;20025;-74
2023/04/08 09:18:35;;;;;;;23.33;18.83;;;;;;;8.87;100.00;102578.22;5072446;28;20385;-78
2023/04/08 09:21:02;;;;;;;25.30;19.13;;;;;;;8.84;100.00;102586.03;5072288;28;20025;-73
2023/04/08 09:23:44;;;;;;;24.42;18.45;;;;;;;9.03;100.00;102588.94;5072554;28;20017;-73
2023/04/08 09:26:10;;;;;;;;;;;;;;;9.25;100.00;102578.88;5072736;28;20491;-73
2023/04/08 09:28:37;;;;;;;24.45;19.17;;;;;;;9.32;100.00;102589.81;5072611;28;19965;-70
2023/04/08 09:31:18;;;;;;;23.02;18.70;;;;;;;9.33;100.00;102565.72;5230896;22;20060;-75
2023/04/08 09:33:43;;;;;;;22.25;19.00;;;;;;;9.40;99.28;102580.13;5072432;28;20028;-73
2023/04/08 09:36:09;;;;;;;23.23;18.40;;;;;;;9.59;100.00;102594.16;5063641;28;20104;-72
2023/04/08 09:38:34;;;;;;;23.17;18.90;;;;;;;9.53;99.65;102559.97;5047886;28;20025;-72
2023/04/08 09:41:05;;;;;;;22.88;17.88;;;;;;;9.95;97.08;102588.75;5052417;28;20029;-71
2023/04/08 09:43:33;;;;;;;24.20;18.70;;;;;;;10.11;96.19;102594.25;5052405;28;20112;-74
2023/04/08 09:46:03;;;;;;;22.58;17.60;;;;;;;10.00;94.96;102576.53;5054581;28;20032;-74
2023/04/08 09:48:37;;;;;;;22.27;17.88;;;;;;;9.85;94.28;102570.13;5055825;28;20025;-74
2023/04/08 09:51:03;;;;;;;23.98;19.58;;;;;;;9.94;95.23;102599.97;5056065;28;20107;-72
2023/04/08 09:53:33;;;;;;;23.50;19.33;;;;;;;10.09;94.21;102599.47;5055881;28;20470;-71
2023/04/08 09:56:01;;;;;;;22.35;19.45;;;;;;;9.92;94.38;102586.25;5056010;28;20037;-73
2023/04/08 09:58:38;;;;;;;23.42;19.85;;;;;;;9.91;94.25;102585.41;5055879;28;20113;-74
2023/04/08 10:01:06;;;;;;;24.08;18.80;;;;;;;10.14;93.59;102610.50;5055878;28;20068;-74
2023/04/08 10:03:47;;;;;;;22.67;19.05;;;;;;;9.86;93.90;102589.88;5055783;28;20029;-72
2023/04/08 10:06:14;;;;;;;22.63;19.20;;;;;;;9.91;95.71;102582.81;5048559;28;20025;-77
2023/04/08 10:08:40;;;;;;;22.00;18.05;;;;;;;10.12;94.83;102609.69;5055916;28;20036;-73
2023/04/08 10:11:06;;;;;;;22.98;18.95;;;;;;;10.40;94.91;102604.47;5047073;28;20371;-73
2023/04/08 10:13:32;;;;;;;24.58;19.65;;;;;;;10.53;94.47;102602.34;5069104;28;20025;-72
2023/04/08 10:16:17;;;;;;;21.95;18.85;;;;;;;10.62;94.50;102597.69;5056285;28;20033;-71
2023/04/08 10:18:43;;;;;;;22.30;18.85;;;;;;;10.74;93.24;102593.00;5055938;28;20074;-75
2023/04/08 10:21:36;;;;;;;22.63;19.10;;;;;;;10.90;91.54;102597.53;5055691;28;20108;-75
2023/04/08 10:24:05;;;;;;;22.90;18.90;;;;;;;10.68;88.28;102585.44;5055540;28;20028;-73
2023/04/08 10:26:42;;;;;;;23.83;18.80;;;;;;;10.31;91.43;102605.63;5055520;28;20428;-72
2023/04/08 10:29:16;;;;;;;23.42;19.92;;;;;;;10.22;91.11;102602.50;5055497;28;20032;-74
2023/04/08 10:31:42;;;;;;;22.05;18.75;;;;;;;10.45;90.93;102599.19;5055090;28;20056;-72
2023/04/08 10:34:17;;;;;;;23.30;20.35;;;;;;;10.85;90.42;102599.47;5055909;28;20474;-72
2023/04/08 10:36:44;;;;;;;22.85;19.30;;;;;;;11.06;88.15;102582.31;5055189;28;20159;-74
2023/04/08 10:39:11;;;;;;;24.02;19.65;;;;;;;11.07;88.38;102565.91;5055184;28;20115;-72
2023/04/08 10:41:46;;;;;;;24.38;20.05;;;;;;;11.29;87.85;102585.78;5055143;28;20110;-76
2023/04/08 10:44:16;;;;;;;22.02;19.15;;;;;;;11.09;86.64;102558.09;5064845;28;20027;-73
2023/04/08 10:46:42;;;;;;;24.05;19.48;;;;;;;10.92;87.92;102579.41;5075660;28;20060;-73
2023/04/08 10:49:08;;;;;;;24.20;20.30;;;;;;;10.60;88.28;102568.47;5074929;28;20052;-72
2023/04/08 10:51:34;;;;;;;26.23;20.95;;;;;;;10.46;93.61;102528.53;5074859;28;20033;-73
2023/04/08 10:54:11;;;;;;;25.10;21.02;;;;;;;10.75;93.79;102574.00;5082835;28;20031;-73
2023/04/08 10:56:43;;;;;;;24.50;21.10;;;;;;;10.55;88.87;102567.81;5074023;28;20035;-74
2023/04/08 10:59:15;;;;;;;26.13;21.42;;;;;;;10.36;90.03;102571.06;5074702;28;20102;-74
2023/04/08 11:01:41;;;;;;;25.48;20.30;;;;;;;10.11;91.26;102555.53;5074647;28;20025;-73
2023/04/08 11:04:12;;;;;;;27.60;22.67;;;;;;;10.21;90.53;102562.06;5074626;28;20020;-74
2023/04/08 11:06:37;;;;;;;30.80;27.50;;;;;;;10.06;88.90;102558.28;5074950;28;20036;-74
2023/04/08 11:09:03;;;;;;;24.85;20.60;;;;;;;10.03;89.18;102564.38;5066027;28;20029;-74
2023/04/08 11:11:30;;;;;;;26.50;21.63;;;;;;;9.92;91.80;102553.53;5074781;28;20466;-75